createdAt,value
2023-01-29T00:02:21.164Z,18.40
2023-01-29T00:04:48.307Z,20.42
2023-01-29T00:07:15.423Z,19.30
2023-01-29T00:09:42.406Z,19.63
2023-01-29T00:12:09.512Z,19.83
2023-01-29T00:14:36.653Z,21.17
2023-01-29T00:17:03.769Z,18.70
2023-01-29T00:19:31.034Z,20.25
2023-01-29T00:22:01.041Z,21.58
2023-01-29T00:24:28.185Z,20.50
2023-01-29T00:26:55.326Z,19.38
2023-01-29T00:29:22.456Z,20.55
2023-01-29T00:31:49.911Z,19.95
2023-01-29T00:34:21.443Z,19.33
2023-01-29T00:36:49.085Z,20.75
2023-01-29T00:39:16.217Z,20.38
2023-01-29T00:42:01.675Z,20.60
2023-01-29T00:44:47.307Z,19.38
2023-01-29T00:47:32.825Z,18.83
2023-01-29T00:50:02.090Z,20.90
2023-01-29T00:52:29.638Z,19.95
2023-01-29T00:54:59.607Z,18.75
2023-01-29T00:57:28.684Z,18.65
2023-01-29T00:59:55.929Z,19.45
2023-01-29T01:02:42.076Z,20.02
2023-01-29T01:05:14.170Z,20.08
2023-01-29T01:07:41.642Z,19.02
2023-01-29T01:10:21.429Z,20.15
2023-01-29T01:12:57.985Z,21.13
2023-01-29T01:15:29.659Z,22.08
2023-01-29T01:18:02.046Z,20.52
2023-01-29T01:20:32.836Z,20.17
2023-01-29T01:23:00.041Z,19.23
2023-01-29T01:25:28.030Z,20.45
2023-01-29T01:30:27.514Z,20.88
2023-01-29T01:32:55.674Z,21.30
2023-01-29T01:35:22.906Z,21.60
2023-01-29T01:37:50.071Z,19.67
2023-01-29T01:40:24.012Z,21.00
2023-01-29T01:42:55.865Z,19.30
2023-01-29T01:45:29.113Z,21.23
2023-01-29T01:48:15.083Z,22.05
2023-01-29T01:51:01.525Z,20.50
2023-01-29T01:53:44.854Z,20.35
2023-01-29T01:56:17.884Z,22.20
2023-01-29T01:58:51.297Z,19.90
2023-01-29T02:01:21.252Z,20.10
2023-01-29T02:04:14.710Z,19.63
2023-01-29T02:07:01.396Z,19.27
2023-01-29T02:09:52.678Z,20.85
2023-01-29T02:12:21.501Z,21.13
2023-01-29T02:14:48.760Z,21.15
2023-01-29T02:17:18.927Z,19.65
2023-01-29T02:20:04.732Z,20.95
2023-01-29T02:23:15.506Z,20.13
2023-01-29T02:26:07.439Z,18.85
2023-01-29T02:29:21.637Z,19.23
2023-01-29T02:32:23.366Z,20.08
2023-01-29T02:35:12.003Z,20.45
2023-01-29T02:38:13.808Z,20.08
2023-01-29T02:40:52.114Z,19.98
2023-01-29T02:43:43.950Z,20.30
2023-01-29T02:46:46.741Z,21.02
2023-01-29T02:49:32.467Z,19.80
2023-01-29T02:52:01.794Z,18.70
2023-01-29T02:54:46.135Z,19.50
2023-01-29T02:57:24.927Z,19.60
2023-01-29T03:00:26.838Z,20.13
2023-01-29T03:02:59.138Z,19.38
2023-01-29T03:05:37.601Z,19.08
2023-01-29T03:08:10.252Z,19.88
2023-01-29T03:10:44.757Z,22.90
2023-01-29T03:13:28.010Z,20.52
2023-01-29T03:16:06.386Z,18.98
2023-01-29T03:18:46.277Z,19.33
2023-01-29T03:21:59.519Z,20.25
2023-01-29T03:25:00.435Z,19.35
2023-01-29T03:28:17.943Z,20.65
2023-01-29T03:31:20.662Z,21.42
2023-01-29T03:34:17.212Z,20.88
2023-01-29T03:37:02.120Z,19.70
2023-01-29T03:39:29.848Z,22.08
2023-01-29T03:42:48.553Z,20.10
2023-01-29T03:45:32.622Z,19.80
2023-01-29T03:48:24.970Z,19.95
2023-01-29T03:51:16.572Z,21.23
2023-01-29T03:54:26.423Z,21.02
2023-01-29T03:57:15.539Z,21.67
2023-01-29T04:00:02.009Z,21.17
2023-01-29T04:03:02.740Z,22.85
2023-01-29T04:05:49.901Z,21.92
2023-01-29T04:08:32.800Z,21.83
2023-01-29T04:11:10.735Z,22.90
2023-01-29T04:13:38.941Z,23.45
2023-01-29T04:16:13.017Z,24.83
2023-01-29T04:19:09.066Z,23.40
2023-01-29T04:21:40.877Z,23.83
2023-01-29T04:24:09.247Z,24.55
2023-01-29T04:27:23.407Z,25.45
2023-01-29T04:30:24.737Z,24.63
2023-01-29T04:33:00.630Z,24.23
2023-01-29T04:35:36.252Z,23.77
2023-01-29T04:38:35.410Z,25.30
2023-01-29T04:41:26.097Z,23.67
2023-01-29T04:44:01.948Z,24.63
2023-01-29T04:47:05.109Z,25.10
2023-01-29T04:50:24.045Z,25.15
2023-01-29T04:53:18.595Z,27.52
2023-01-29T04:55:52.626Z,25.40
2023-01-29T04:58:34.172Z,26.88
2023-01-29T05:01:05.391Z,27.23
2023-01-29T05:03:33.987Z,26.15
2023-01-29T05:06:02.694Z,25.98
2023-01-29T05:08:31.469Z,27.55
2023-01-29T05:11:00.940Z,27.15
2023-01-29T05:13:31.801Z,26.60
2023-01-29T05:16:17.209Z,26.60
2023-01-29T05:18:44.566Z,26.67
2023-01-29T05:21:11.703Z,28.67
2023-01-29T05:23:38.796Z,27.92
2023-01-29T05:26:06.449Z,26.40
2023-01-29T05:28:33.613Z,27.80
2023-01-29T05:31:00.812Z,28.48
2023-01-29T05:33:31.382Z,27.73
2023-01-29T05:36:01.581Z,28.77
2023-01-29T05:38:28.857Z,27.67
2023-01-29T05:40:59.388Z,28.65
2023-01-29T05:43:27.152Z,27.85
2023-01-29T05:45:57.220Z,28.48
2023-01-29T05:48:24.798Z,27.88
2023-01-29T05:50:52.144Z,27.42
2023-01-29T05:53:19.343Z,27.90
2023-01-29T05:55:47.850Z,28.38
2023-01-29T05:58:15.182Z,28.90
2023-01-29T06:00:42.617Z,27.55
2023-01-29T06:03:10.806Z,27.52
2023-01-29T06:05:39.430Z,28.30
2023-01-29T06:08:07.717Z,28.42
2023-01-29T06:10:35.348Z,28.85
2023-01-29T06:13:02.629Z,27.02
2023-01-29T06:15:29.699Z,28.25
2023-01-29T06:17:57.759Z,27.35
2023-01-29T06:20:25.264Z,27.92
2023-01-29T06:22:52.280Z,26.98
2023-01-29T06:25:19.274Z,26.58
2023-01-29T06:27:46.552Z,26.60
2023-01-29T06:30:14.497Z,25.60
2023-01-29T06:32:41.789Z,26.92
2023-01-29T06:35:10.241Z,26.98
2023-01-29T06:37:38.466Z,26.80
2023-01-29T06:40:06.394Z,26.35
2023-01-29T06:42:35.884Z,24.42
2023-01-29T06:45:03.129Z,25.48
2023-01-29T06:47:30.181Z,25.05
2023-01-29T06:49:57.244Z,26.30
2023-01-29T06:52:28.729Z,25.35
2023-01-29T06:54:56.618Z,26.77
2023-01-29T06:57:23.991Z,25.60
2023-01-29T06:59:50.982Z,26.17
2023-01-29T07:02:18.132Z,25.52
2023-01-29T07:04:45.246Z,26.42
2023-01-29T07:07:13.399Z,26.85
2023-01-29T07:09:42.071Z,26.83
2023-01-29T07:12:10.961Z,27.38
2023-01-29T07:14:38.173Z,27.52
2023-01-29T07:17:05.335Z,26.67
2023-01-29T07:19:35.310Z,27.00
2023-01-29T07:22:03.220Z,27.13
2023-01-29T07:24:30.377Z,27.83
2023-01-29T07:26:57.559Z,27.77
2023-01-29T07:29:24.665Z,26.88
2023-01-29T07:31:51.793Z,28.30
2023-01-29T07:34:19.011Z,28.13
2023-01-29T07:36:46.049Z,29.02
2023-01-29T07:39:13.153Z,29.90
2023-01-29T07:41:40.257Z,28.90
2023-01-29T07:44:16.155Z,27.90
2023-01-29T07:46:43.400Z,28.65
2023-01-29T07:49:10.483Z,28.33
2023-01-29T07:51:37.603Z,29.92
2023-01-29T07:54:04.874Z,29.38
2023-01-29T07:56:31.907Z,29.42
2023-01-29T07:58:59.141Z,29.85
2023-01-29T08:01:26.260Z,29.00
2023-01-29T08:03:53.502Z,30.10
2023-01-29T08:06:20.625Z,30.88
2023-01-29T08:08:47.816Z,30.77
2023-01-29T08:11:15.442Z,29.70
2023-01-29T08:13:42.418Z,31.60
2023-01-29T08:16:09.587Z,31.73
2023-01-29T08:18:38.321Z,30.80
2023-01-29T08:21:05.769Z,31.02
2023-01-29T08:23:35.929Z,30.80
2023-01-29T08:26:04.852Z,31.08
2023-01-29T08:28:32.334Z,30.90
2023-01-29T08:30:59.589Z,31.60
2023-01-29T08:33:38.676Z,31.48
2023-01-29T08:36:08.269Z,31.45
2023-01-29T08:38:36.227Z,30.05
2023-01-29T08:41:04.085Z,30.67
2023-01-29T08:43:33.290Z,30.27
2023-01-29T08:46:00.371Z,30.55
2023-01-29T08:48:28.894Z,31.63
2023-01-29T08:50:58.885Z,31.73
2023-01-29T08:53:26.180Z,31.88
2023-01-29T08:55:53.473Z,30.98
2023-01-29T08:58:21.052Z,31.65
2023-01-29T09:00:48.237Z,31.13
2023-01-29T09:03:15.824Z,30.60
2023-01-29T09:05:42.980Z,29.58
2023-01-29T09:08:10.633Z,30.42
2023-01-29T09:10:37.833Z,29.92
2023-01-29T09:13:05.201Z,30.25
2023-01-29T09:15:32.583Z,30.88
2023-01-29T09:18:04.541Z,30.90
2023-01-29T09:20:32.025Z,30.52
2023-01-29T09:22:59.250Z,29.33
2023-01-29T09:25:26.277Z,29.95
2023-01-29T09:27:54.684Z,30.45
2023-01-29T09:30:21.944Z,29.90
2023-01-29T09:32:53.644Z,29.52
2023-01-29T09:35:23.369Z,30.27
2023-01-29T09:37:51.641Z,29.70
2023-01-29T09:40:27.026Z,30.35
2023-01-29T09:43:07.896Z,30.20
2023-01-29T09:45:45.600Z,29.70
2023-01-29T09:48:13.604Z,28.83
2023-01-29T09:50:55.118Z,29.70
2023-01-29T09:53:31.644Z,29.30
2023-01-29T09:56:06.529Z,29.85
2023-01-29T09:58:43.313Z,29.60
2023-01-29T10:01:41.207Z,29.67
2023-01-29T10:04:48.389Z,31.75
2023-01-29T10:07:36.628Z,29.73
2023-01-29T10:10:47.101Z,30.13
2023-01-29T10:13:33.223Z,29.90
2023-01-29T10:16:35.594Z,31.45
2023-01-29T10:19:53.426Z,30.52
2023-01-29T10:22:44.782Z,30.20
2023-01-29T10:25:19.621Z,30.55
2023-01-29T10:27:57.584Z,30.10
2023-01-29T10:31:04.788Z,30.33
2023-01-29T10:34:01.482Z,30.98
2023-01-29T10:36:48.015Z,31.00
2023-01-29T10:39:26.845Z,30.27
2023-01-29T10:42:14.962Z,29.38
2023-01-29T10:45:22.388Z,30.33
2023-01-29T10:50:50.971Z,29.45
2023-01-29T10:53:48.272Z,31.05
2023-01-29T10:56:43.420Z,30.63
2023-01-29T11:00:12.960Z,31.45
2023-01-29T11:02:50.400Z,31.60
2023-01-29T11:06:01.651Z,31.30
2023-01-29T11:08:38.570Z,31.70
2023-01-29T11:11:22.050Z,31.55
2023-01-29T11:14:11.699Z,31.88
2023-01-29T11:16:48.042Z,31.92
2023-01-29T11:19:16.656Z,32.33
2023-01-29T11:21:59.630Z,32.10
2023-01-29T11:24:28.213Z,31.05
2023-01-29T11:26:58.450Z,32.58
2023-01-29T11:29:48.091Z,34.75
2023-01-29T11:32:19.001Z,31.17
2023-01-29T11:35:20.954Z,31.75
2023-01-29T11:37:49.444Z,34.03
2023-01-29T11:40:19.569Z,32.92
2023-01-29T11:42:50.637Z,31.58
2023-01-29T11:45:20.729Z,33.38
2023-01-29T11:47:55.112Z,31.20
2023-01-29T11:50:26.134Z,30.88
2023-01-29T11:52:53.859Z,34.00
2023-01-29T11:55:48.179Z,33.00
2023-01-29T11:58:30.335Z,32.80
2023-01-29T12:00:58.450Z,35.83
2023-01-29T12:03:41.134Z,31.38
2023-01-29T12:06:25.063Z,31.92
2023-01-29T12:09:02.969Z,31.90
2023-01-29T12:11:32.555Z,32.38
2023-01-29T12:14:08.904Z,30.73
2023-01-29T12:16:55.143Z,29.67
2023-01-29T12:19:36.646Z,31.58
2023-01-29T12:22:12.194Z,31.70
2023-01-29T12:24:57.030Z,29.83
2023-01-29T12:28:01.007Z,29.67
2023-01-29T12:31:00.018Z,30.65
2023-01-29T12:33:52.852Z,28.02
2023-01-29T12:36:29.014Z,29.92
2023-01-29T12:38:56.185Z,28.17
2023-01-29T12:41:36.178Z,26.85
2023-01-29T12:44:27.295Z,28.15
2023-01-29T12:47:00.357Z,27.13
2023-01-29T12:49:35.644Z,26.45
2023-01-29T12:52:16.839Z,27.85
2023-01-29T12:55:03.236Z,28.27
2023-01-29T12:58:05.249Z,26.88
2023-01-29T13:00:39.870Z,28.05
2023-01-29T13:03:42.193Z,28.75
2023-01-29T13:06:21.539Z,28.65
2023-01-29T13:08:57.116Z,28.92
2023-01-29T13:11:38.281Z,30.52
2023-01-29T13:14:22.639Z,30.38
2023-01-29T13:16:56.272Z,30.88
2023-01-29T13:19:40.927Z,30.92
2023-01-29T13:22:26.085Z,33.83
2023-01-29T13:25:04.243Z,32.20
2023-01-29T13:27:35.012Z,30.13
2023-01-29T13:30:02.723Z,30.90
2023-01-29T13:32:34.274Z,33.00
2023-01-29T13:35:13.541Z,31.27
2023-01-29T13:37:48.786Z,30.23
2023-01-29T13:40:38.177Z,29.33
2023-01-29T13:43:07.912Z,29.70
2023-01-29T13:45:44.348Z,29.60
2023-01-29T13:48:37.998Z,31.33
2023-01-29T13:51:17.762Z,30.52
2023-01-29T13:53:56.438Z,31.42
2023-01-29T13:56:45.240Z,31.33
2023-01-29T13:59:50.036Z,30.63
2023-01-29T14:02:29.704Z,29.67
2023-01-29T14:05:32.677Z,31.20
2023-01-29T14:08:07.237Z,29.92
2023-01-29T14:10:37.223Z,29.27
2023-01-29T14:13:19.158Z,31.48
2023-01-29T14:16:09.669Z,32.83
2023-01-29T14:18:47.109Z,30.33
2023-01-29T14:21:14.361Z,31.35
2023-01-29T14:23:52.772Z,32.15
2023-01-29T14:26:39.055Z,32.60
2023-01-29T14:29:14.483Z,33.85
2023-01-29T14:31:53.692Z,34.33
2023-01-29T14:34:35.259Z,34.85
2023-01-29T14:37:29.266Z,35.13
2023-01-29T14:40:07.555Z,39.47
2023-01-29T14:42:50.028Z,36.45
2023-01-29T14:45:35.164Z,36.03
2023-01-29T14:48:36.399Z,37.53
2023-01-29T14:51:13.733Z,37.17
2023-01-29T14:53:49.753Z,37.65
2023-01-29T14:59:19.288Z,39.40
2023-01-29T15:01:55.982Z,38.28
2023-01-29T15:04:52.251Z,40.17
2023-01-29T15:07:55.353Z,40.00
2023-01-29T15:10:39.989Z,41.42
2023-01-29T15:13:49.730Z,41.72
2023-01-29T15:16:27.224Z,41.05
2023-01-29T15:19:08.006Z,43.00
2023-01-29T15:21:35.110Z,42.65
2023-01-29T15:24:07.537Z,44.13
2023-01-29T15:26:36.931Z,44.47
2023-01-29T15:29:05.919Z,42.67
2023-01-29T15:31:36.306Z,43.55
2023-01-29T15:34:07.688Z,43.38
2023-01-29T15:36:37.323Z,44.17
2023-01-29T15:39:23.535Z,44.95
2023-01-29T15:42:05.314Z,42.90
2023-01-29T15:44:34.747Z,45.42
2023-01-29T15:47:02.296Z,43.42
2023-01-29T15:49:36.867Z,45.05
2023-01-29T15:52:08.795Z,43.13
2023-01-29T15:54:36.316Z,45.38
2023-01-29T15:57:04.345Z,46.47
2023-01-29T15:59:39.331Z,45.80
2023-01-29T16:02:35.787Z,45.63
2023-01-29T16:05:12.201Z,45.65
2023-01-29T16:07:40.021Z,43.22
2023-01-29T16:10:08.412Z,43.95
2023-01-29T16:12:36.134Z,44.72
2023-01-29T16:15:05.659Z,45.83
2023-01-29T16:17:35.552Z,43.10
2023-01-29T16:20:20.594Z,45.45
2023-01-29T16:22:53.680Z,45.17
2023-01-29T16:25:21.043Z,44.33
2023-01-29T16:27:48.911Z,44.83
2023-01-29T16:30:19.191Z,44.55
2023-01-29T16:32:46.483Z,46.35
2023-01-29T16:35:17.595Z,46.78
2023-01-29T16:37:50.142Z,45.85
2023-01-29T16:40:33.047Z,44.92
2023-01-29T16:43:15.192Z,44.80
2023-01-29T16:45:42.368Z,44.60
2023-01-29T16:48:33.579Z,45.40
2023-01-29T16:51:06.542Z,46.90
2023-01-29T16:53:35.958Z,45.35
2023-01-29T16:56:08.159Z,45.25
2023-01-29T16:58:35.815Z,45.30
2023-01-29T17:01:09.737Z,44.97
2023-01-29T17:03:39.020Z,44.88
2023-01-29T17:06:19.382Z,46.47
2023-01-29T17:08:46.765Z,44.50
2023-01-29T17:11:30.730Z,46.08
2023-01-29T17:13:58.088Z,44.35
2023-01-29T17:16:54.664Z,44.28
2023-01-29T17:19:23.746Z,43.35
2023-01-29T17:21:51.208Z,43.38
2023-01-29T17:24:18.432Z,42.63
2023-01-29T17:26:45.803Z,43.58
2023-01-29T17:29:20.414Z,43.85
2023-01-29T17:31:47.775Z,47.22
2023-01-29T17:34:16.820Z,44.40
2023-01-29T17:36:45.120Z,42.72
2023-01-29T17:39:20.526Z,45.00
2023-01-29T17:41:55.144Z,50.80
2023-01-29T17:44:28.389Z,42.03
2023-01-29T17:46:55.625Z,44.42
2023-01-29T17:49:29.589Z,42.35
2023-01-29T17:51:57.401Z,40.75
2023-01-29T17:54:25.682Z,42.90
2023-01-29T17:56:54.296Z,41.83
2023-01-29T17:59:25.417Z,41.97
2023-01-29T18:01:53.213Z,41.97
2023-01-29T18:04:20.810Z,43.10
2023-01-29T18:06:50.689Z,40.33
2023-01-29T18:09:21.785Z,41.45
2023-01-29T18:11:53.592Z,43.72
2023-01-29T18:14:20.931Z,39.42
2023-01-29T18:16:48.225Z,43.15
2023-01-29T18:19:16.926Z,42.40
2023-01-29T18:21:44.072Z,43.47
2023-01-29T18:24:11.260Z,40.95
2023-01-29T18:26:38.670Z,43.60
2023-01-29T18:29:06.166Z,41.72
2023-01-29T18:31:33.276Z,42.80
2023-01-29T18:34:00.553Z,42.35
2023-01-29T18:36:27.644Z,41.60
2023-01-29T18:38:56.330Z,43.47
2023-01-29T18:41:23.546Z,44.58
2023-01-29T18:43:52.834Z,42.42
2023-01-29T18:46:20.974Z,43.50
2023-01-29T18:48:48.200Z,43.33
2023-01-29T18:51:15.348Z,46.25
2023-01-29T18:53:42.564Z,42.60
2023-01-29T18:56:10.675Z,43.50
2023-01-29T18:58:38.021Z,46.97
2023-01-29T19:01:09.582Z,46.80
2023-01-29T19:03:41.240Z,46.70
2023-01-29T19:06:10.976Z,46.55
2023-01-29T19:08:38.767Z,45.95
2023-01-29T19:11:08.225Z,45.20
2023-01-29T19:13:38.008Z,45.10
2023-01-29T19:16:10.629Z,43.95
2023-01-29T19:18:38.772Z,45.35
2023-01-29T19:21:12.332Z,43.33
2023-01-29T19:23:41.039Z,44.40
2023-01-29T19:26:09.113Z,46.17
2023-01-29T19:28:36.448Z,45.72
2023-01-29T19:31:03.744Z,45.28
2023-01-29T19:33:30.996Z,45.17
2023-01-29T19:35:59.803Z,47.95
2023-01-29T19:38:28.416Z,44.88
2023-01-29T19:40:55.592Z,43.50
2023-01-29T19:43:22.792Z,43.63
2023-01-29T19:45:57.352Z,45.70
2023-01-29T19:48:26.337Z,43.47
2023-01-29T19:51:04.236Z,42.25
2023-01-29T19:53:32.129Z,44.47
2023-01-29T19:56:03.160Z,44.67
2023-01-29T19:58:30.794Z,44.30
2023-01-29T20:01:05.910Z,41.55
2023-01-29T20:03:34.118Z,42.30
2023-01-29T20:06:06.480Z,44.97
2023-01-29T20:08:34.890Z,43.38
2023-01-29T20:11:02.867Z,47.13
2023-01-29T20:13:30.163Z,47.10
2023-01-29T20:15:57.835Z,43.70
2023-01-29T20:18:25.196Z,48.28
2023-01-29T20:20:53.411Z,45.05
2023-01-29T20:23:36.565Z,43.08
2023-01-29T20:26:09.677Z,46.72
2023-01-29T20:28:37.479Z,44.58
2023-01-29T20:31:05.974Z,46.45
2023-01-29T20:33:34.619Z,45.17
2023-01-29T20:36:05.432Z,45.30
2023-01-29T20:38:34.513Z,46.67
2023-01-29T20:41:14.914Z,45.20
2023-01-29T20:43:42.771Z,46.95
2023-01-29T20:46:10.862Z,44.60
2023-01-29T20:48:38.122Z,40.90
2023-01-29T20:51:15.622Z,41.92
2023-01-29T20:53:45.772Z,42.72
2023-01-29T20:56:15.420Z,46.53
2023-01-29T20:58:43.016Z,43.80
2023-01-29T21:01:13.835Z,40.78
2023-01-29T21:03:41.830Z,41.35
2023-01-29T21:06:10.867Z,43.05
2023-01-29T21:08:38.815Z,45.42
2023-01-29T21:11:07.660Z,44.78
2023-01-29T21:13:35.351Z,42.40
2023-01-29T21:16:02.726Z,43.05
2023-01-29T21:18:30.718Z,42.17
2023-01-29T21:21:00.761Z,40.42
2023-01-29T21:23:29.121Z,43.17
2023-01-29T21:26:06.442Z,43.97
2023-01-29T21:28:34.363Z,41.13
2023-01-29T21:31:08.750Z,44.25
2023-01-29T21:33:36.801Z,43.95
2023-01-29T21:36:04.966Z,43.42
2023-01-29T21:38:32.486Z,40.80
2023-01-29T21:41:05.403Z,41.38
2023-01-29T21:43:32.882Z,40.28
2023-01-29T21:46:05.029Z,39.30
2023-01-29T21:48:32.605Z,44.20
2023-01-29T21:50:59.691Z,40.30
2023-01-29T21:53:26.826Z,40.78
2023-01-29T21:56:04.218Z,38.60
2023-01-29T21:58:32.011Z,40.83
2023-01-29T22:01:11.402Z,40.33
2023-01-29T22:03:47.520Z,39.88
2023-01-29T22:06:15.467Z,39.85
2023-01-29T22:08:42.968Z,37.35
2023-01-29T22:11:10.428Z,37.65
2023-01-29T22:13:37.665Z,37.25
2023-01-29T22:16:06.090Z,40.97
2023-01-29T22:18:33.614Z,36.63
2023-01-29T22:21:02.835Z,38.67
2023-01-29T22:23:35.139Z,35.30
2023-01-29T22:26:07.285Z,37.33
2023-01-29T22:28:34.381Z,36.75
2023-01-29T22:31:02.919Z,34.53
2023-01-29T22:33:30.701Z,37.08
2023-01-29T22:35:57.930Z,37.15
2023-01-29T22:38:25.666Z,34.85
2023-01-29T22:40:54.346Z,34.10
2023-01-29T22:43:22.304Z,34.90
2023-01-29T22:45:49.311Z,33.58
2023-01-29T22:48:16.282Z,35.75
2023-01-29T22:50:53.875Z,33.70
2023-01-29T22:53:21.245Z,34.38
2023-01-29T22:55:57.739Z,31.13
2023-01-29T22:58:24.839Z,35.67
2023-01-29T23:00:51.989Z,32.83
2023-01-29T23:03:19.107Z,33.75
2023-01-29T23:05:46.264Z,31.50
2023-01-29T23:08:13.319Z,31.17
2023-01-29T23:10:40.342Z,32.60
2023-01-29T23:13:07.470Z,30.88
2023-01-29T23:15:34.593Z,33.78
2023-01-29T23:18:01.800Z,36.75
2023-01-29T23:20:28.964Z,37.38
2023-01-29T23:22:56.100Z,34.00
2023-01-29T23:25:43.629Z,35.70
2023-01-29T23:28:10.659Z,33.63
2023-01-29T23:30:38.120Z,37.30
2023-01-29T23:33:05.483Z,34.15
2023-01-29T23:35:33.359Z,32.35
2023-01-29T23:38:00.386Z,34.38
2023-01-29T23:40:27.425Z,33.83
2023-01-29T23:42:54.487Z,33.97
2023-01-29T23:45:21.739Z,32.28
2023-01-29T23:47:48.833Z,33.47
2023-01-29T23:50:16.582Z,33.45
2023-01-29T23:52:43.740Z,32.63
2023-01-29T23:55:10.925Z,32.45
2023-01-29T23:57:37.980Z,32.88
